createdAt,value
2023-06-29T00:01:53.456Z,3.03
2023-06-29T00:04:23.131Z,3.50
2023-06-29T00:06:54.296Z,3.97
2023-06-29T00:09:24.850Z,5.20
2023-06-29T00:11:53.666Z,4.07
2023-06-29T00:14:22.499Z,3.07
2023-06-29T00:16:52.058Z,3.47
2023-06-29T00:19:22.231Z,2.47
2023-06-29T00:21:52.528Z,2.47
2023-06-29T00:24:21.458Z,4.17
2023-06-29T00:26:50.458Z,3.83
2023-06-29T00:29:19.906Z,3.87
2023-06-29T00:31:48.828Z,2.90
2023-06-29T00:34:20.566Z,3.40
2023-06-29T00:36:50.558Z,5.30
2023-06-29T00:39:20.877Z,2.93
2023-06-29T00:41:54.914Z,3.63
2023-06-29T00:44:24.443Z,4.30
2023-06-29T00:46:56.156Z,2.80
2023-06-29T00:49:26.573Z,3.57
2023-06-29T00:51:57.322Z,3.83
2023-06-29T00:54:29.039Z,4.93
2023-06-29T00:57:00.251Z,3.33
2023-06-29T00:59:29.061Z,3.90
2023-06-29T01:01:58.436Z,2.60
2023-06-29T01:04:27.592Z,3.03
2023-06-29T01:07:00.452Z,2.67
2023-06-29T01:09:31.313Z,3.90
2023-06-29T01:12:02.185Z,4.37
2023-06-29T01:14:33.403Z,4.83
2023-06-29T01:17:03.734Z,5.57
2023-06-29T01:19:35.206Z,3.03
2023-06-29T01:22:07.548Z,3.67
2023-06-29T01:24:41.272Z,5.37
2023-06-29T01:27:13.970Z,2.97
2023-06-29T01:29:43.738Z,3.57
2023-06-29T01:32:13.075Z,2.80
2023-06-29T01:34:42.130Z,4.17
2023-06-29T01:37:14.374Z,2.90
2023-06-29T01:39:56.842Z,4.10
2023-06-29T01:42:27.454Z,3.23
2023-06-29T01:44:56.824Z,3.17
2023-06-29T01:47:26.985Z,3.67
2023-06-29T01:49:56.010Z,3.93
2023-06-29T01:52:25.300Z,4.97
2023-06-29T01:54:57.434Z,2.97
2023-06-29T01:57:29.470Z,3.60
2023-06-29T01:59:59.546Z,3.47
2023-06-29T02:02:28.549Z,3.17
2023-06-29T02:05:01.104Z,3.63
2023-06-29T02:07:29.964Z,4.37
2023-06-29T02:10:00.456Z,3.67
2023-06-29T02:12:29.323Z,2.57
2023-06-29T02:14:58.265Z,4.43
2023-06-29T02:17:29.123Z,3.70
2023-06-29T02:19:58.024Z,3.27
2023-06-29T02:22:26.820Z,2.50
2023-06-29T02:24:55.703Z,3.17
2023-06-29T02:27:26.067Z,4.27
2023-06-29T02:29:54.973Z,2.77
2023-06-29T02:32:25.745Z,3.50
2023-06-29T02:34:54.728Z,3.20
2023-06-29T02:37:24.454Z,2.70
2023-06-29T02:39:53.582Z,5.00
2023-06-29T02:42:22.400Z,4.70
2023-06-29T02:44:52.750Z,2.90
2023-06-29T02:47:21.636Z,3.20
2023-06-29T02:49:50.675Z,4.30
2023-06-29T02:52:22.038Z,4.50
2023-06-29T02:54:51.982Z,3.37
2023-06-29T02:57:20.957Z,3.40
2023-06-29T02:59:49.867Z,3.83
2023-06-29T03:02:20.241Z,3.93
2023-06-29T03:04:49.102Z,2.40
2023-06-29T03:07:18.074Z,3.20
2023-06-29T03:09:49.023Z,3.13
2023-06-29T03:12:17.837Z,3.10
2023-06-29T03:14:46.653Z,3.53
2023-06-29T03:17:15.945Z,3.37
2023-06-29T03:19:46.368Z,3.63
2023-06-29T03:22:15.276Z,5.47
2023-06-29T03:24:44.061Z,2.37
2023-06-29T03:27:13.373Z,2.83
2023-06-29T03:29:42.140Z,5.03
2023-06-29T03:32:11.513Z,2.50
2023-06-29T03:34:40.326Z,3.87
2023-06-29T03:37:11.506Z,3.43
2023-06-29T03:39:40.388Z,3.23
2023-06-29T03:42:09.340Z,2.93
2023-06-29T03:44:40.770Z,3.23
2023-06-29T03:47:09.805Z,3.30
2023-06-29T03:49:38.553Z,3.33
2023-06-29T03:52:08.637Z,3.90
2023-06-29T03:54:38.867Z,4.97
2023-06-29T03:57:08.778Z,3.43
2023-06-29T03:59:37.694Z,3.33
2023-06-29T04:02:07.108Z,4.20
2023-06-29T04:04:36.009Z,3.13
2023-06-29T04:07:05.079Z,4.00
2023-06-29T04:09:34.259Z,3.73
2023-06-29T04:12:04.493Z,3.80
2023-06-29T04:14:33.437Z,8.10
2023-06-29T04:17:02.255Z,4.93
2023-06-29T04:19:31.861Z,4.23
2023-06-29T04:22:00.700Z,2.43
2023-06-29T04:24:29.537Z,4.70
2023-06-29T04:26:58.332Z,3.80
2023-06-29T04:29:29.647Z,4.30
2023-06-29T04:31:59.460Z,3.67
2023-06-29T04:34:29.316Z,3.83
2023-06-29T04:36:58.199Z,4.80
2023-06-29T04:39:27.131Z,5.53
2023-06-29T04:42:02.970Z,3.97
2023-06-29T04:44:33.675Z,4.53
2023-06-29T04:47:03.267Z,5.43
2023-06-29T04:49:38.790Z,3.90
2023-06-29T04:52:11.380Z,4.90
2023-06-29T04:54:40.289Z,3.97
2023-06-29T04:57:09.162Z,4.93
2023-06-29T04:59:39.461Z,3.63
2023-06-29T05:02:09.579Z,5.27
2023-06-29T05:04:38.680Z,6.37
2023-06-29T05:07:07.621Z,5.50
2023-06-29T05:09:37.496Z,5.67
2023-06-29T05:12:07.097Z,2.97
2023-06-29T05:14:35.985Z,4.87
2023-06-29T05:17:08.653Z,5.87
2023-06-29T05:19:37.750Z,3.57
2023-06-29T05:22:07.042Z,7.23
2023-06-29T05:24:36.003Z,3.37
2023-06-29T05:27:04.806Z,4.40
2023-06-29T05:29:33.638Z,6.60
2023-06-29T05:32:02.592Z,5.07
2023-06-29T05:34:32.977Z,9.93
2023-06-29T05:37:01.871Z,5.77
2023-06-29T05:39:30.770Z,4.73
2023-06-29T05:41:59.619Z,9.17
2023-06-29T05:44:28.377Z,4.17
2023-06-29T05:46:57.301Z,5.43
2023-06-29T05:49:26.123Z,7.33
2023-06-29T05:51:56.365Z,3.93
2023-06-29T05:54:25.267Z,11.07
2023-06-29T05:56:55.108Z,12.77
2023-06-29T05:59:24.140Z,8.13
2023-06-29T06:01:53.240Z,5.93
2023-06-29T06:04:22.064Z,5.30
2023-06-29T06:06:51.141Z,4.70
2023-06-29T06:09:21.508Z,7.37
2023-06-29T06:11:50.445Z,9.90
2023-06-29T06:14:19.234Z,7.63
2023-06-29T06:16:48.194Z,7.97
2023-06-29T06:19:17.287Z,15.80
2023-06-29T06:21:46.174Z,14.35
2023-06-29T06:24:15.058Z,10.48
2023-06-29T06:26:45.372Z,11.02
2023-06-29T06:29:14.187Z,12.95
2023-06-29T06:31:43.084Z,8.80
2023-06-29T06:34:12.100Z,5.60
2023-06-29T06:36:41.519Z,7.05
2023-06-29T06:39:11.384Z,6.72
2023-06-29T06:41:40.295Z,6.35
2023-06-29T06:44:10.761Z,27.60
2023-06-29T06:46:39.753Z,14.80
2023-06-29T06:49:08.587Z,14.15
2023-06-29T06:51:37.399Z,21.40
2023-06-29T06:54:06.283Z,17.27
2023-06-29T06:56:35.231Z,17.48
2023-06-29T06:59:04.219Z,20.33
2023-06-29T07:01:35.054Z,9.50
2023-06-29T07:04:04.629Z,7.80
2023-06-29T07:06:35.073Z,15.15
2023-06-29T07:09:05.117Z,8.90
2023-06-29T07:11:33.967Z,6.28
2023-06-29T07:14:03.236Z,8.60
2023-06-29T07:16:33.569Z,7.80
2023-06-29T07:21:39.531Z,8.75
2023-06-29T07:24:09.395Z,6.95
2023-06-29T07:26:38.873Z,8.13
2023-06-29T07:29:08.456Z,9.95
2023-06-29T07:31:39.841Z,9.07
2023-06-29T07:34:09.001Z,6.50
2023-06-29T07:36:39.439Z,9.18
2023-06-29T07:39:08.569Z,7.97
2023-06-29T07:41:37.998Z,7.65
2023-06-29T07:44:08.549Z,8.05
2023-06-29T07:46:38.973Z,7.57
2023-06-29T07:49:08.435Z,7.57
2023-06-29T07:51:38.428Z,9.57
2023-06-29T07:54:07.963Z,10.80
2023-06-29T07:59:09.215Z,10.32
2023-06-29T08:01:39.542Z,7.57
2023-06-29T08:04:09.456Z,7.82
2023-06-29T08:06:52.013Z,9.75
2023-06-29T08:09:22.325Z,9.55
2023-06-29T08:11:51.797Z,9.55
2023-06-29T08:14:20.625Z,6.65
2023-06-29T08:16:50.891Z,9.50
2023-06-29T08:19:19.908Z,7.88
2023-06-29T08:21:49.521Z,8.10
2023-06-29T08:24:18.517Z,11.07
2023-06-29T08:26:47.445Z,5.97
2023-06-29T08:29:16.309Z,6.53
2023-06-29T08:31:45.383Z,6.63
2023-06-29T08:34:15.814Z,6.68
2023-06-29T08:36:44.701Z,8.75
2023-06-29T08:39:13.492Z,6.85
2023-06-29T08:41:42.914Z,5.80
2023-06-29T08:44:11.865Z,7.03
2023-06-29T08:46:41.341Z,5.68
2023-06-29T08:49:10.822Z,8.88
2023-06-29T08:51:43.733Z,5.72
2023-06-29T08:54:14.191Z,5.43
2023-06-29T08:56:43.108Z,7.85
2023-06-29T08:59:12.468Z,8.10
2023-06-29T09:01:42.288Z,7.03
2023-06-29T09:04:11.544Z,6.40
2023-06-29T09:06:43.242Z,5.45
2023-06-29T09:09:12.221Z,6.07
2023-06-29T09:11:43.915Z,5.25
2023-06-29T09:14:13.089Z,7.97
2023-06-29T09:16:52.007Z,5.25
2023-06-29T09:19:21.062Z,7.13
2023-06-29T09:21:51.642Z,8.93
2023-06-29T09:24:20.920Z,7.70
2023-06-29T09:26:51.901Z,6.38
2023-06-29T09:29:20.823Z,8.50
2023-06-29T09:31:59.396Z,4.82
2023-06-29T09:34:29.857Z,6.28
2023-06-29T09:37:00.275Z,6.93
2023-06-29T09:39:29.130Z,7.97
2023-06-29T09:41:59.237Z,5.25
2023-06-29T09:44:29.168Z,5.80
2023-06-29T09:49:49.462Z,6.38
2023-06-29T09:52:21.016Z,11.18
2023-06-29T09:54:51.054Z,5.88
2023-06-29T09:57:21.420Z,8.63
2023-06-29T09:59:51.126Z,13.50
2023-06-29T10:02:20.595Z,8.23
2023-06-29T10:04:51.043Z,6.80
2023-06-29T10:07:23.899Z,8.82
2023-06-29T10:09:53.477Z,5.90
2023-06-29T10:12:28.784Z,6.90
2023-06-29T10:15:01.580Z,4.47
2023-06-29T10:17:36.625Z,5.70
2023-06-29T10:20:08.090Z,5.45
2023-06-29T10:22:41.451Z,6.65
2023-06-29T10:25:15.385Z,5.03
2023-06-29T10:27:45.283Z,6.53
2023-06-29T10:30:20.160Z,5.93
2023-06-29T10:32:51.947Z,5.28
2023-06-29T10:35:20.789Z,6.35
2023-06-29T10:37:53.329Z,4.55
2023-06-29T10:40:26.240Z,5.63
2023-06-29T10:42:56.879Z,5.10
2023-06-29T10:45:35.534Z,6.60
2023-06-29T10:48:31.300Z,6.28
2023-06-29T10:51:09.630Z,4.80
2023-06-29T10:53:42.028Z,4.63
2023-06-29T10:56:31.181Z,6.05
2023-06-29T10:59:01.219Z,5.88
2023-06-29T11:01:30.864Z,6.22
2023-06-29T11:04:01.525Z,5.32
2023-06-29T11:06:37.031Z,4.95
2023-06-29T11:09:15.050Z,6.80
2023-06-29T11:11:46.473Z,6.47
2023-06-29T11:14:15.486Z,6.70
2023-06-29T11:16:44.453Z,6.28
2023-06-29T11:19:13.822Z,5.82
2023-06-29T11:21:43.223Z,10.93
2023-06-29T11:24:13.614Z,11.07
2023-06-29T11:26:42.632Z,6.63
2023-06-29T11:29:11.536Z,6.68
2023-06-29T11:31:40.831Z,7.55
2023-06-29T11:34:15.370Z,5.72
2023-06-29T11:39:34.709Z,7.53
2023-06-29T11:42:06.829Z,8.52
2023-06-29T11:44:36.072Z,11.02
2023-06-29T11:47:18.428Z,6.93
2023-06-29T11:49:55.722Z,6.13
2023-06-29T11:52:24.991Z,7.07
2023-06-29T11:54:55.308Z,10.48
2023-06-29T11:57:24.179Z,7.78
2023-06-29T11:59:53.087Z,8.73
2023-06-29T12:02:22.467Z,8.55
2023-06-29T12:04:58.894Z,7.63
2023-06-29T12:07:38.325Z,10.75
2023-06-29T12:10:11.289Z,10.88
2023-06-29T12:12:41.486Z,7.78
2023-06-29T12:15:16.755Z,9.45
2023-06-29T12:20:19.838Z,8.55
2023-06-29T12:22:50.948Z,7.53
2023-06-29T12:25:22.142Z,7.68
2023-06-29T12:27:52.581Z,7.60
2023-06-29T12:30:23.083Z,12.40
2023-06-29T12:32:53.112Z,9.15
2023-06-29T12:35:21.949Z,9.90
2023-06-29T12:37:50.857Z,8.25
2023-06-29T12:40:21.330Z,7.65
2023-06-29T12:42:50.246Z,10.25
2023-06-29T12:45:19.133Z,12.27
2023-06-29T12:47:48.180Z,7.75
2023-06-29T12:50:17.891Z,9.13
2023-06-29T12:52:48.324Z,8.77
2023-06-29T12:55:17.361Z,10.57
2023-06-29T12:57:47.648Z,9.02
2023-06-29T13:00:19.979Z,8.75
2023-06-29T13:02:49.576Z,9.13
2023-06-29T13:05:18.697Z,9.38
2023-06-29T13:07:47.570Z,12.95
2023-06-29T13:10:16.378Z,12.05
2023-06-29T13:12:46.625Z,7.50
2023-06-29T13:15:15.584Z,10.95
2023-06-29T13:17:45.363Z,10.63
2023-06-29T13:20:16.130Z,10.05
2023-06-29T13:22:45.236Z,12.15
2023-06-29T13:25:14.128Z,9.23
2023-06-29T13:27:45.198Z,9.70
2023-06-29T13:30:17.071Z,8.43
2023-06-29T13:32:46.167Z,11.45
2023-06-29T13:35:15.026Z,10.52
2023-06-29T13:37:43.906Z,9.82
2023-06-29T13:40:14.073Z,10.75
2023-06-29T13:42:43.149Z,10.45
2023-06-29T13:45:12.555Z,12.65
2023-06-29T13:47:45.144Z,11.35
2023-06-29T13:50:16.520Z,10.82
2023-06-29T13:52:48.488Z,10.65
2023-06-29T13:55:17.352Z,12.25
2023-06-29T13:57:46.195Z,12.02
2023-06-29T14:00:16.277Z,12.48
2023-06-29T14:02:46.725Z,14.52
2023-06-29T14:05:15.756Z,14.00
2023-06-29T14:07:44.639Z,12.50
2023-06-29T14:10:13.543Z,13.18
2023-06-29T14:12:42.436Z,13.68
2023-06-29T14:15:11.993Z,21.25
2023-06-29T14:17:41.103Z,13.90
2023-06-29T14:20:12.891Z,13.65
2023-06-29T14:22:42.726Z,14.50
2023-06-29T14:25:12.625Z,13.73
2023-06-29T14:27:41.552Z,14.20
2023-06-29T14:30:12.363Z,14.13
2023-06-29T14:32:41.504Z,15.05
2023-06-29T14:35:12.008Z,15.23
2023-06-29T14:37:41.364Z,17.83
2023-06-29T14:40:11.335Z,17.33
2023-06-29T14:42:41.617Z,17.55
2023-06-29T14:45:11.252Z,19.27
2023-06-29T14:47:40.283Z,17.58
2023-06-29T14:50:10.989Z,18.08
2023-06-29T14:52:41.808Z,21.55
2023-06-29T14:55:10.762Z,18.48
2023-06-29T14:57:39.614Z,18.60
2023-06-29T15:00:10.159Z,19.05
2023-06-29T15:02:40.275Z,19.23
2023-06-29T15:05:09.978Z,19.73
2023-06-29T15:07:38.847Z,17.80
2023-06-29T15:10:11.657Z,21.73
2023-06-29T15:12:40.554Z,20.83
2023-06-29T15:15:11.819Z,20.05
2023-06-29T15:17:43.565Z,23.30
2023-06-29T15:20:13.391Z,21.77
2023-06-29T15:22:42.300Z,20.20
2023-06-29T15:25:12.760Z,18.90
2023-06-29T15:27:41.760Z,20.08
2023-06-29T15:30:11.402Z,20.63
2023-06-29T15:32:40.317Z,20.58
2023-06-29T15:35:10.330Z,19.25
2023-06-29T15:37:39.158Z,19.25
2023-06-29T15:40:09.704Z,20.08
2023-06-29T15:42:40.145Z,19.92
2023-06-29T15:45:09.638Z,19.90
2023-06-29T15:47:38.518Z,21.17
2023-06-29T15:50:08.485Z,19.27
2023-06-29T15:52:37.844Z,20.05
2023-06-29T15:55:08.612Z,19.73
2023-06-29T15:57:37.495Z,18.25
2023-06-29T16:00:09.414Z,23.42
2023-06-29T16:02:40.812Z,20.25
2023-06-29T16:05:10.508Z,29.67
2023-06-29T16:07:39.442Z,22.27
2023-06-29T16:10:09.117Z,18.80
2023-06-29T16:12:38.122Z,18.60
2023-06-29T16:15:09.386Z,17.08
2023-06-29T16:17:38.435Z,18.02
2023-06-29T16:20:09.541Z,18.25
2023-06-29T16:22:38.584Z,18.35
2023-06-29T16:25:09.755Z,23.65
2023-06-29T16:27:38.697Z,20.88
2023-06-29T16:30:10.938Z,20.13
2023-06-29T16:32:40.411Z,18.73
2023-06-29T16:35:09.862Z,18.75
2023-06-29T16:37:38.820Z,16.05
2023-06-29T16:40:09.026Z,15.85
2023-06-29T16:42:38.302Z,15.13
2023-06-29T16:45:09.374Z,20.02
2023-06-29T16:47:38.810Z,15.90
2023-06-29T16:50:09.281Z,15.18
2023-06-29T16:52:38.294Z,16.13
2023-06-29T16:55:07.492Z,16.67
2023-06-29T16:57:36.393Z,14.95
2023-06-29T17:00:05.950Z,12.63
2023-06-29T17:02:36.635Z,12.90
2023-06-29T17:05:05.908Z,14.05
2023-06-29T17:07:36.941Z,14.77
2023-06-29T17:10:06.725Z,12.80
2023-06-29T17:12:35.606Z,12.30
2023-06-29T17:15:04.810Z,12.93
2023-06-29T17:17:33.952Z,14.45
2023-06-29T17:20:04.392Z,14.90
2023-06-29T17:22:33.355Z,12.27
2023-06-29T17:25:02.173Z,14.45
2023-06-29T17:27:30.938Z,12.60
2023-06-29T17:29:59.819Z,13.75
2023-06-29T17:32:28.786Z,13.30
2023-06-29T17:34:58.793Z,12.15
2023-06-29T17:37:30.121Z,12.18
2023-06-29T17:39:59.167Z,13.02
2023-06-29T17:42:28.952Z,12.32
2023-06-29T17:44:57.850Z,13.68
2023-06-29T17:47:26.649Z,12.18
2023-06-29T17:49:55.531Z,10.68
2023-06-29T17:52:24.286Z,11.27
2023-06-29T17:54:54.889Z,13.15
2023-06-29T17:57:23.778Z,11.57
2023-06-29T17:59:52.611Z,10.52
2023-06-29T18:02:22.562Z,12.20
2023-06-29T18:04:51.686Z,11.93
2023-06-29T18:07:20.661Z,13.18
2023-06-29T18:09:49.675Z,10.88
2023-06-29T18:12:20.276Z,16.02
2023-06-29T18:14:49.126Z,13.90
2023-06-29T18:17:19.934Z,12.13
2023-06-29T18:19:48.835Z,10.95
2023-06-29T18:22:17.620Z,11.65
2023-06-29T18:24:46.477Z,16.08
2023-06-29T18:27:15.346Z,13.38
2023-06-29T18:29:45.854Z,13.10
2023-06-29T18:32:14.749Z,13.90
2023-06-29T18:34:43.956Z,13.02
2023-06-29T18:37:12.886Z,12.55
2023-06-29T18:39:41.878Z,13.63
2023-06-29T18:42:11.629Z,11.77
2023-06-29T18:44:41.533Z,14.43
2023-06-29T18:47:15.201Z,13.15
2023-06-29T18:49:52.185Z,14.32
2023-06-29T18:52:22.543Z,12.98
2023-06-29T18:54:53.210Z,14.70
2023-06-29T18:57:22.191Z,15.98
2023-06-29T18:59:51.074Z,14.00
2023-06-29T19:02:21.522Z,15.85
2023-06-29T19:04:50.370Z,12.68
2023-06-29T19:07:19.376Z,10.80
2023-06-29T19:09:48.882Z,14.43
2023-06-29T19:12:17.741Z,11.63
2023-06-29T19:14:46.591Z,12.48
2023-06-29T19:17:15.623Z,13.10
2023-06-29T19:19:45.808Z,11.43
2023-06-29T19:22:14.619Z,13.00
2023-06-29T19:24:43.493Z,12.32
2023-06-29T19:27:12.329Z,11.30
2023-06-29T19:29:41.307Z,14.90
2023-06-29T19:32:11.840Z,15.73
2023-06-29T19:34:41.014Z,17.05
2023-06-29T19:37:12.313Z,11.95
2023-06-29T19:39:42.271Z,10.45
2023-06-29T19:42:11.210Z,13.27
2023-06-29T19:44:40.166Z,12.30
2023-06-29T19:47:09.232Z,10.93
2023-06-29T19:49:38.186Z,11.63
2023-06-29T19:52:07.625Z,13.00
2023-06-29T19:54:37.918Z,12.13
2023-06-29T19:57:08.715Z,10.77
2023-06-29T19:59:37.587Z,12.45
2023-06-29T20:02:07.158Z,13.57
2023-06-29T20:04:36.105Z,10.98
2023-06-29T20:07:05.391Z,14.95
2023-06-29T20:09:34.350Z,14.77
2023-06-29T20:12:04.870Z,14.52
2023-06-29T20:14:34.207Z,13.80
2023-06-29T20:17:03.090Z,12.38
2023-06-29T20:19:33.386Z,11.82
2023-06-29T20:22:02.178Z,14.65
2023-06-29T20:24:31.123Z,13.60
2023-06-29T20:26:59.915Z,14.48
2023-06-29T20:29:30.415Z,12.02
2023-06-29T20:31:59.379Z,12.20
2023-06-29T20:34:28.491Z,11.40
2023-06-29T20:36:57.362Z,11.40
2023-06-29T20:39:27.948Z,13.52
2023-06-29T20:41:56.746Z,13.60
2023-06-29T20:44:33.974Z,10.57
2023-06-29T20:47:05.429Z,13.55
2023-06-29T20:49:34.568Z,13.00
2023-06-29T20:52:03.924Z,13.88
2023-06-29T20:54:32.949Z,12.57
2023-06-29T20:57:03.720Z,10.30
2023-06-29T20:59:34.903Z,7.22
2023-06-29T21:02:06.343Z,9.07
2023-06-29T21:04:35.331Z,5.55
2023-06-29T21:07:04.314Z,7.43
2023-06-29T21:09:33.800Z,7.40
2023-06-29T21:12:03.014Z,7.30
2023-06-29T21:14:33.566Z,7.53
2023-06-29T21:17:02.704Z,5.80
2023-06-29T21:19:35.029Z,7.80
2023-06-29T21:22:04.615Z,8.43
2023-06-29T21:24:34.774Z,5.90
2023-06-29T21:27:04.043Z,8.07
2023-06-29T21:29:42.334Z,6.47
2023-06-29T21:32:13.439Z,6.75
2023-06-29T21:34:44.266Z,7.50
2023-06-29T21:37:14.854Z,7.35
2023-06-29T21:39:44.481Z,9.48
2023-06-29T21:42:13.423Z,7.47
2023-06-29T21:44:42.339Z,10.23
2023-06-29T21:47:11.419Z,10.73
2023-06-29T21:49:40.462Z,9.73
2023-06-29T21:52:10.946Z,8.85
2023-06-29T21:54:39.798Z,9.70
2023-06-29T21:57:09.143Z,6.60
2023-06-29T21:59:37.974Z,10.27
2023-06-29T22:02:07.723Z,11.65
2023-06-29T22:04:37.689Z,13.55
2023-06-29T22:07:16.832Z,6.03
2023-06-29T22:09:47.729Z,9.18
2023-06-29T22:12:16.616Z,6.97
2023-06-29T22:14:49.209Z,8.93
2023-06-29T22:17:18.367Z,10.10
2023-06-29T22:20:10.498Z,7.13
2023-06-29T22:22:39.419Z,9.95
2023-06-29T22:25:10.864Z,9.20
2023-06-29T22:27:40.033Z,11.85
2023-06-29T22:30:10.168Z,9.73
2023-06-29T22:32:39.769Z,10.02
2023-06-29T22:35:10.111Z,7.68
2023-06-29T22:37:39.857Z,8.55
2023-06-29T22:40:11.418Z,9.90
2023-06-29T22:42:40.380Z,10.52
2023-06-29T22:45:10.117Z,9.75
2023-06-29T22:47:39.081Z,11.77
2023-06-29T22:50:08.640Z,8.15
2023-06-29T22:52:37.941Z,7.18
2023-06-29T22:55:07.406Z,7.60
2023-06-29T22:57:37.802Z,8.27
2023-06-29T23:00:12.016Z,9.52
2023-06-29T23:02:45.467Z,8.35
2023-06-29T23:05:16.366Z,9.02
2023-06-29T23:07:45.954Z,7.93
2023-06-29T23:10:15.433Z,10.57
2023-06-29T23:12:46.975Z,7.82
2023-06-29T23:15:16.094Z,9.60
2023-06-29T23:17:45.694Z,8.32
2023-06-29T23:20:14.675Z,7.93
2023-06-29T23:22:45.354Z,6.78
2023-06-29T23:25:15.254Z,8.65
2023-06-29T23:27:45.565Z,7.47
2023-06-29T23:30:16.905Z,7.78
2023-06-29T23:32:51.280Z,9.40
2023-06-29T23:35:21.962Z,9.40
2023-06-29T23:37:51.472Z,7.72
2023-06-29T23:40:20.422Z,7.65
2023-06-29T23:42:52.269Z,8.63
2023-06-29T23:45:21.400Z,6.77
2023-06-29T23:47:50.362Z,8.23
2023-06-29T23:50:19.929Z,12.03
2023-06-29T23:52:49.505Z,9.83
2023-06-29T23:55:20.465Z,10.37
2023-06-29T23:57:51.317Z,7.10
